Time,TemperatureF,DewpointF,PressureIn,WindDirection,WindDirectionDegrees,WindSpeedMPH,WindSpeedGustMPH,Humidity,HourlyPrecipIn,Conditions,Clouds,dailyrainin,SoftwareType,DateUTC
2013-05-27 00:02:00,49.0,37.0,30.15,SE,132,0.0,0.0,62,0.00,,,0.66,,2013-05-27 04:02:00,
2013-05-27 00:12:00,49.0,37.0,30.15,SE,132,0.0,0.0,62,0.00,,,0.66,,2013-05-27 04:12:00,
2013-05-27 00:23:00,49.0,37.0,30.15,SE,132,0.0,0.0,62,0.00,,,0.00,,2013-05-27 04:23:00,
2013-05-27 00:33:00,48.0,37.0,30.15,SE,132,0.0,0.0,65,0.00,,,0.00,,2013-05-27 04:33:00,
2013-05-27 00:43:00,48.0,38.0,30.16,SE,132,0.0,0.0,67,0.00,,,0.00,,2013-05-27 04:43:00,
2013-05-27 00:52:00,48.0,38.0,30.16,SE,132,0.0,0.0,67,0.00,,,0.00,,2013-05-27 04:52:00,
2013-05-27 01:02:00,47.0,37.0,30.16,SE,132,0.0,0.0,68,0.00,,,0.00,,2013-05-27 05:02:00,
2013-05-27 01:12:00,47.0,37.0,30.16,SE,132,0.0,0.0,68,0.00,,,0.00,,2013-05-27 05:12:00,
2013-05-27 01:22:00,47.0,37.0,30.16,SE,132,0.0,0.0,69,0.00,,,0.00,,2013-05-27 05:22:00,
2013-05-27 01:32:00,47.0,39.0,30.17,SE,132,0.0,0.0,73,0.00,,,0.00,,2013-05-27 05:32:00,
2013-05-27 01:42:00,47.0,39.0,30.17,SE,132,0.0,0.0,73,0.00,,,0.00,,2013-05-27 05:42:00,
2013-05-27 01:52:00,46.0,38.0,30.16,SE,132,0.0,0.0,74,0.00,,,0.00,,2013-05-27 05:52:00,
2013-05-27 02:02:00,45.0,38.0,30.16,SE,132,0.0,0.0,75,0.00,,,0.00,,2013-05-27 06:02:00,
2013-05-27 02:11:00,45.0,38.0,30.16,SE,132,0.0,0.0,75,0.00,,,0.00,,2013-05-27 06:11:00,
2013-05-27 02:22:00,45.0,38.0,30.16,SE,132,0.0,0.0,76,0.00,,,0.00,,2013-05-27 06:22:00,
2013-05-27 02:32:00,45.0,38.0,30.16,SE,132,0.0,0.0,77,0.00,,,0.00,,2013-05-27 06:32:00,
2013-05-27 02:42:00,45.0,39.0,30.16,SE,132,0.0,0.0,78,0.00,,,0.00,,2013-05-27 06:42:00,
2013-05-27 02:52:00,45.0,39.0,30.16,SE,132,0.0,0.0,78,0.00,,,0.00,,2013-05-27 06:52:00,
2013-05-27 03:02:00,45.0,39.0,30.16,SE,132,0.0,0.0,78,0.00,,,0.00,,2013-05-27 07:02:00,
2013-05-27 03:11:00,45.0,39.0,30.16,SE,132,0.0,0.0,79,0.00,,,0.00,,2013-05-27 07:11:00,
2013-05-27 03:21:00,45.0,39.0,30.16,SE,132,0.0,0.0,79,0.00,,,0.00,,2013-05-27 07:21:00,
2013-05-27 03:32:00,44.0,38.0,30.16,SE,132,0.0,0.0,79,0.00,,,0.00,,2013-05-27 07:32:00,
2013-05-27 03:42:00,44.0,38.0,30.16,SE,132,0.0,0.0,79,0.00,,,0.00,,2013-05-27 07:42:00,
2013-05-27 03:52:00,44.0,38.0,30.16,SE,132,0.0,0.0,79,0.00,,,0.00,,2013-05-27 07:52:00,
2013-05-27 04:02:00,44.0,38.0,30.16,SE,132,0.0,0.0,79,0.00,,,0.00,,2013-05-27 08:02:00,
2013-05-27 04:11:00,44.0,38.0,30.16,SE,132,0.0,0.0,79,0.00,,,0.00,,2013-05-27 08:11:00,
2013-05-27 04:22:00,44.0,38.0,30.16,SE,132,0.0,0.0,78,0.00,,,0.00,,2013-05-27 08:22:00,
2013-05-27 04:33:00,45.0,38.0,30.16,SE,132,0.0,0.0,77,0.00,,,0.00,,2013-05-27 08:33:00,
2013-05-27 04:42:00,45.0,38.0,30.16,SE,132,0.0,0.0,77,0.00,,,0.00,,2013-05-27 08:42:00,
2013-05-27 04:52:00,45.0,38.0,30.16,SE,132,0.0,0.0,76,0.00,,,0.00,,2013-05-27 08:52:00,
2013-05-27 05:02:00,45.0,37.0,30.16,SE,132,0.0,0.0,73,0.00,,,0.00,,2013-05-27 09:02:00,
2013-05-27 05:11:00,45.0,37.0,30.17,SE,132,0.0,0.0,72,0.00,,,0.00,,2013-05-27 09:11:00,
2013-05-27 05:21:00,45.0,37.0,30.17,SE,132,0.0,0.0,72,0.00,,,0.00,,2013-05-27 09:21:00,
2013-05-27 05:33:00,46.0,37.0,30.17,SE,132,0.0,0.0,71,0.00,,,0.00,,2013-05-27 09:33:00,
2013-05-27 05:42:00,46.0,37.0,30.17,SE,132,0.0,0.0,71,0.00,,,0.00,,2013-05-27 09:42:00,
2013-05-27 05:53:00,46.0,37.0,30.18,SE,132,0.0,0.0,71,0.00,,,0.00,,2013-05-27 09:53:00,
2013-05-27 06:03:00,46.0,38.0,30.18,SE,132,0.0,0.0,74,0.00,,,0.00,,2013-05-27 10:03:00,
2013-05-27 06:12:00,46.0,38.0,30.18,SE,132,0.0,0.0,74,0.00,,,0.00,,2013-05-27 10:12:00,
2013-05-27 06:22:00,46.0,39.0,30.18,SE,132,0.0,0.0,75,0.00,,,0.00,,2013-05-27 10:22:00,
2013-05-27 06:32:00,46.0,39.0,30.18,SE,132,0.0,1.0,77,0.00,,,0.00,,2013-05-27 10:32:00,
2013-05-27 06:42:00,46.0,39.0,30.18,SE,132,0.0,1.0,77,0.00,,,0.00,,2013-05-27 10:42:00,
2013-05-27 06:52:00,46.0,39.0,30.18,SE,132,0.0,0.0,77,0.00,,,0.00,,2013-05-27 10:52:00,
2013-05-27 07:02:00,47.0,41.0,30.19,SE,132,0.0,0.0,79,0.00,,,0.00,,2013-05-27 11:02:00,
2013-05-27 07:11:00,47.0,41.0,30.19,SE,132,0.0,0.0,79,0.00,,,0.00,,2013-05-27 11:11:00,
2013-05-27 07:22:00,47.0,41.0,30.18,SE,132,0.0,0.0,80,0.00,,,0.00,,2013-05-27 11:22:00,
2013-05-27 07:32:00,48.0,42.0,30.19,SSE,167,0.0,1.0,79,0.00,,,0.00,,2013-05-27 11:32:00,
2013-05-27 07:42:00,48.0,42.0,30.19,SSE,167,0.0,1.0,79,0.00,,,0.00,,2013-05-27 11:42:00,
2013-05-27 07:52:00,49.0,42.0,30.19,SSE,167,0.0,1.0,78,0.00,,,0.00,,2013-05-27 11:52:00,
2013-05-27 08:01:00,53.0,41.0,30.19,SSE,168,0.0,1.0,63,0.00,,,0.00,,2013-05-27 12:01:00,
2013-05-27 08:11:00,53.0,41.0,30.19,SSE,168,0.0,1.0,63,0.00,,,0.00,,2013-05-27 12:11:00,
2013-05-27 08:22:00,55.0,39.0,30.19,SW,216,0.0,4.0,55,0.00,,,0.00,,2013-05-27 12:22:00,
2013-05-27 08:32:00,57.0,39.0,30.20,West,279,0.0,3.0,51,0.00,,,0.00,,2013-05-27 12:32:00,
2013-05-27 08:42:00,57.0,39.0,30.20,West,279,0.0,3.0,51,0.00,,,0.00,,2013-05-27 12:42:00,
2013-05-27 08:52:00,58.0,40.0,30.20,WSW,253,0.0,3.0,51,0.00,,,0.00,,2013-05-27 12:52:00,
2013-05-27 09:01:00,59.0,40.0,30.20,South,185,0.0,2.0,50,0.00,,,0.00,,2013-05-27 13:01:00,
2013-05-27 09:11:00,59.0,40.0,30.20,South,185,0.0,2.0,50,0.00,,,0.00,,2013-05-27 13:11:00,
2013-05-27 09:22:00,60.0,40.0,30.19,SW,224,0.0,3.0,48,0.00,,,0.00,,2013-05-27 13:22:00,
2013-05-27 09:32:00,61.0,41.0,30.19,South,172,0.0,3.0,47,0.00,,,0.00,,2013-05-27 13:32:00,
2013-05-27 09:42:00,61.0,41.0,30.19,South,172,0.0,3.0,47,0.00,,,0.00,,2013-05-27 13:42:00,
2013-05-27 09:52:00,62.0,41.0,30.19,SSW,194,0.0,2.0,46,0.00,,,0.00,,2013-05-27 13:52:00,
2013-05-27 10:02:00,62.0,39.0,30.19,SE,124,1.0,3.0,42,0.00,,,0.00,,2013-05-27 14:02:00,
2013-05-27 10:11:00,62.0,39.0,30.19,SE,124,1.0,3.0,42,0.00,,,0.00,,2013-05-27 14:11:00,
2013-05-27 10:22:00,63.0,38.0,30.19,WNW,285,0.0,3.0,40,0.00,,,0.00,,2013-05-27 14:22:00,
2013-05-27 10:32:00,63.0,39.0,30.19,WSW,239,1.0,3.0,41,0.00,,,0.00,,2013-05-27 14:32:00,
2013-05-27 10:42:00,63.0,39.0,30.19,WSW,239,1.0,3.0,41,0.00,,,0.00,,2013-05-27 14:42:00,
2013-05-27 10:52:00,64.0,39.0,30.19,SW,236,1.0,5.0,39,0.00,,,0.00,,2013-05-27 14:52:00,
2013-05-27 11:01:00,65.0,38.0,30.18,SSW,203,0.0,4.0,37,0.00,,,0.00,,2013-05-27 15:01:00,
2013-05-27 11:11:00,66.0,40.0,30.18,SSW,208,0.0,4.0,38,0.00,,,0.00,,2013-05-27 15:11:00,
2013-05-27 11:21:00,66.0,40.0,30.18,SSW,208,0.0,4.0,38,0.00,,,0.00,,2013-05-27 15:21:00,
2013-05-27 11:33:00,67.0,41.0,30.18,SW,221,1.0,5.0,38,0.00,,,0.00,,2013-05-27 15:33:00,
2013-05-27 11:43:00,67.0,38.0,30.18,SW,231,0.0,4.0,34,0.00,,,0.00,,2013-05-27 15:43:00,
2013-05-27 11:53:00,67.0,38.0,30.18,SW,231,0.0,4.0,34,0.00,,,0.00,,2013-05-27 15:53:00,
2013-05-27 12:03:00,67.0,41.0,30.17,SW,218,1.0,4.0,38,0.00,,,0.00,,2013-05-27 16:03:00,
2013-05-27 12:12:00,67.0,41.0,30.17,SW,218,1.0,4.0,38,0.00,,,0.00,,2013-05-27 16:12:00,
2013-05-27 12:23:00,68.0,38.0,30.16,SSW,194,2.0,5.0,33,0.00,,,0.00,,2013-05-27 16:23:00,
2013-05-27 12:33:00,67.0,37.0,30.16,SSE,156,0.0,3.0,33,0.00,,,0.00,,2013-05-27 16:33:00,
2013-05-27 12:42:00,67.0,37.0,30.16,SSE,156,0.0,3.0,33,0.00,,,0.00,,2013-05-27 16:42:00,
2013-05-27 12:52:00,68.0,39.0,30.16,SW,215,1.0,8.0,34,0.00,,,0.00,,2013-05-27 16:52:00,
2013-05-27 13:02:00,67.0,36.0,30.15,SSW,196,2.0,5.0,32,0.00,,,0.00,,2013-05-27 17:02:00,
2013-05-27 13:12:00,68.0,41.0,30.15,SW,219,1.0,4.0,37,0.00,,,0.00,,2013-05-27 17:12:00,
2013-05-27 13:22:00,68.0,41.0,30.15,SW,219,1.0,4.0,37,0.00,,,0.00,,2013-05-27 17:22:00,
2013-05-27 13:32:00,68.0,39.0,30.14,NE,34,0.0,5.0,34,0.00,,,0.00,,2013-05-27 17:32:00,
2013-05-27 13:43:00,68.0,39.0,30.14,NE,34,0.0,5.0,34,0.00,,,0.00,,2013-05-27 17:43:00,
2013-05-27 13:52:00,68.0,39.0,30.14,SSW,192,1.0,5.0,34,0.00,,,0.00,,2013-05-27 17:52:00,
2013-05-27 14:02:00,69.0,36.0,30.13,SSW,204,2.0,4.0,30,0.00,,,0.00,,2013-05-27 18:02:00,
2013-05-27 14:11:00,69.0,36.0,30.13,SSW,204,2.0,4.0,30,0.00,,,0.00,,2013-05-27 18:11:00,
2013-05-27 14:22:00,69.0,36.0,30.12,SW,215,2.0,7.0,30,0.00,,,0.00,,2013-05-27 18:22:00,
2013-05-27 14:32:00,69.0,36.0,30.12,SSW,201,1.0,6.0,30,0.00,,,0.00,,2013-05-27 18:32:00,
2013-05-27 14:42:00,69.0,36.0,30.12,SSW,201,1.0,6.0,30,0.00,,,0.00,,2013-05-27 18:42:00,
2013-05-27 14:52:00,69.0,36.0,30.12,East,82,1.0,3.0,30,0.00,,,0.00,,2013-05-27 18:52:00,
2013-05-27 15:01:00,70.0,37.0,30.11,ESE,120,1.0,4.0,30,0.00,,,0.00,,2013-05-27 19:01:00,
2013-05-27 15:11:00,70.0,37.0,30.11,ESE,120,1.0,4.0,30,0.00,,,0.00,,2013-05-27 19:11:00,
2013-05-27 15:21:00,70.0,37.0,30.11,SE,131,1.0,3.0,30,0.00,,,0.00,,2013-05-27 19:21:00,
2013-05-27 15:32:00,70.0,35.0,30.10,SSW,213,1.0,4.0,28,0.00,,,0.00,,2013-05-27 19:32:00,
2013-05-27 15:42:00,70.0,35.0,30.10,SSW,213,1.0,4.0,28,0.00,,,0.00,,2013-05-27 19:42:00,
2013-05-27 15:52:00,71.0,39.0,30.09,WSW,244,1.0,5.0,31,0.00,,,0.00,,2013-05-27 19:52:00,
2013-05-27 16:01:00,71.0,37.0,30.09,South,179,1.0,2.0,29,0.00,,,0.00,,2013-05-27 20:01:00,
2013-05-27 16:11:00,71.0,37.0,30.09,South,179,1.0,2.0,29,0.00,,,0.00,,2013-05-27 20:11:00,
2013-05-27 16:22:00,72.0,38.0,30.09,NE,47,0.0,3.0,29,0.00,,,0.00,,2013-05-27 20:22:00,
2013-05-27 16:32:00,71.0,37.0,30.09,West,263,0.0,3.0,29,0.00,,,0.00,,2013-05-27 20:32:00,
2013-05-27 16:42:00,71.0,37.0,30.09,SW,235,0.0,5.0,29,0.00,,,0.00,,2013-05-27 20:42:00,
2013-05-27 16:52:00,71.0,37.0,30.09,SW,235,0.0,5.0,29,0.00,,,0.00,,2013-05-27 20:52:00,
2013-05-27 17:01:00,71.0,40.0,30.08,SSE,165,1.0,3.0,32,0.00,,,0.00,,2013-05-27 21:01:00,
2013-05-27 17:12:00,70.0,38.0,30.08,ENE,73,1.0,2.0,31,0.00,,,0.00,,2013-05-27 21:12:00,
2013-05-27 17:21:00,70.0,38.0,30.08,ENE,73,1.0,2.0,31,0.00,,,0.00,,2013-05-27 21:21:00,
2013-05-27 17:33:00,70.0,40.0,30.08,East,88,0.0,5.0,33,0.00,,,0.00,,2013-05-27 21:33:00,
2013-05-27 17:43:00,70.0,41.0,30.08,SSE,167,0.0,3.0,35,0.00,,,0.00,,2013-05-27 21:43:00,
2013-05-27 17:53:00,70.0,41.0,30.08,SSE,167,0.0,3.0,35,0.00,,,0.00,,2013-05-27 21:53:00,
2013-05-27 18:02:00,70.0,40.0,30.08,SE,133,0.0,3.0,33,0.00,,,0.00,,2013-05-27 22:02:00,
2013-05-27 18:12:00,70.0,39.0,30.08,SE,134,0.0,2.0,32,0.00,,,0.00,,2013-05-27 22:12:00,
2013-05-27 18:22:00,70.0,39.0,30.08,SE,134,0.0,2.0,32,0.00,,,0.00,,2013-05-27 22:22:00,
2013-05-27 18:33:00,69.0,39.0,30.08,SW,226,0.0,3.0,33,0.00,,,0.00,,2013-05-27 22:33:00,
2013-05-27 18:42:00,69.0,39.0,30.08,SW,226,0.0,3.0,33,0.00,,,0.00,,2013-05-27 22:42:00,
2013-05-27 18:52:00,69.0,39.0,30.08,SW,234,0.0,2.0,33,0.00,,,0.00,,2013-05-27 22:52:00,
2013-05-27 19:02:00,69.0,39.0,30.08,SW,234,0.0,0.0,33,0.00,,,0.00,,2013-05-27 23:02:00,
2013-05-27 19:12:00,69.0,39.0,30.08,SW,234,0.0,0.0,33,0.00,,,0.00,,2013-05-27 23:12:00,
2013-05-27 19:22:00,69.0,40.0,30.09,SW,234,0.0,0.0,35,0.00,,,0.00,,2013-05-27 23:22:00,
2013-05-27 19:32:00,69.0,41.0,30.09,SW,234,0.0,0.0,36,0.00,,,0.00,,2013-05-27 23:32:00,
2013-05-27 19:42:00,69.0,41.0,30.09,SW,234,0.0,0.0,36,0.00,,,0.00,,2013-05-27 23:42:00,
2013-05-27 19:52:00,68.0,40.0,30.09,SW,234,0.0,0.0,36,0.00,,,0.00,,2013-05-27 23:52:00,
2013-05-27 20:01:00,67.0,40.0,30.09,SW,234,0.0,0.0,37,0.00,,,0.00,,2013-05-28 00:01:00,
2013-05-27 20:11:00,67.0,40.0,30.09,SW,234,0.0,0.0,37,0.00,,,0.00,,2013-05-28 00:11:00,
2013-05-27 20:22:00,67.0,42.0,30.09,SW,234,0.0,0.0,40,0.00,,,0.00,,2013-05-28 00:22:00,
2013-05-27 20:32:00,66.0,42.0,30.09,SW,234,0.0,0.0,42,0.00,,,0.00,,2013-05-28 00:32:00,
2013-05-27 20:42:00,66.0,42.0,30.09,SW,234,0.0,0.0,42,0.00,,,0.00,,2013-05-28 00:42:00,
2013-05-27 20:52:00,65.0,41.0,30.09,SW,234,0.0,0.0,42,0.00,,,0.00,,2013-05-28 00:52:00,
2013-05-27 21:01:00,65.0,43.0,30.09,SW,234,0.0,0.0,45,0.00,,,0.00,,2013-05-28 01:01:00,
2013-05-27 21:11:00,65.0,43.0,30.09,SW,234,0.0,0.0,45,0.00,,,0.00,,2013-05-28 01:11:00,
2013-05-27 21:22:00,63.0,44.0,30.10,SW,233,0.0,2.0,49,0.00,,,0.00,,2013-05-28 01:22:00,
2013-05-27 21:32:00,62.0,43.0,30.11,SW,234,0.0,0.0,49,0.00,,,0.00,,2013-05-28 01:32:00,
2013-05-27 21:42:00,62.0,43.0,30.11,SW,234,0.0,0.0,49,0.00,,,0.00,,2013-05-28 01:42:00,
2013-05-27 21:52:00,61.0,43.0,30.11,SW,234,0.0,0.0,52,0.00,,,0.00,,2013-05-28 01:52:00,
2013-05-27 22:02:00,60.0,44.0,30.11,SW,234,0.0,0.0,55,0.00,,,0.00,,2013-05-28 02:02:00,
2013-05-27 22:11:00,60.0,44.0,30.11,SW,234,0.0,0.0,55,0.00,,,0.00,,2013-05-28 02:11:00,
2013-05-27 22:22:00,60.0,44.0,30.11,SW,234,0.0,0.0,55,0.00,,,0.00,,2013-05-28 02:22:00,
2013-05-27 22:32:00,59.0,44.0,30.12,SW,234,0.0,0.0,57,0.00,,,0.00,,2013-05-28 02:32:00,
2013-05-27 22:42:00,59.0,44.0,30.12,SW,234,0.0,0.0,57,0.00,,,0.00,,2013-05-28 02:42:00,
2013-05-27 22:52:00,58.0,42.0,30.12,SW,234,0.0,0.0,55,0.00,,,0.00,,2013-05-28 02:52:00,
2013-05-27 23:01:00,58.0,42.0,30.12,SW,234,0.0,0.0,55,0.00,,,0.00,,2013-05-28 03:01:00,
2013-05-27 23:11:00,58.0,42.0,30.12,SW,234,0.0,0.0,55,0.00,,,0.00,,2013-05-28 03:11:00,
2013-05-27 23:21:00,58.0,42.0,30.12,SW,234,0.0,0.0,55,0.00,,,0.00,,2013-05-28 03:21:00,
2013-05-27 23:33:00,58.0,44.0,30.13,SW,234,0.0,0.0,59,0.00,,,0.00,,2013-05-28 03:33:00,
2013-05-27 23:43:00,58.0,44.0,30.13,SW,234,0.0,0.0,59,0.00,,,0.00,,2013-05-28 03:43:00,
2013-05-27 23:53:00,58.0,42.0,30.14,SW,234,0.0,0.0,55,0.00,,,0.00,,2013-05-28 03:53:00,